| time (UTC) | temp C | wind direction | speed KPH | gust KPH | rain 1hr cm | rain 24hr cm | rain mn cm | humidity % | barometer mb |
| 20260906084554 | 22 | 58 | 0.0 | 1.6 | 0.00 | 0.43 | 0.00 | 98 | 1009.1 |
| 20260906084454 | 22 | 58 | 0.0 | 1.6 | 0.00 | 0.43 | 0.00 | 98 | 1009.1 |
| 20260906083954 | 23 | 65 | 0.0 | 3.2 | 0.00 | 0.43 | 0.00 | 98 | 1009.0 |
| 20260906083454 | 22 | 311 | 0.0 | 0.0 | 0.00 | 0.43 | 0.00 | 97 | 1008.9 |
| 20260906082451 | 23 | 286 | 0.0 | 0.0 | 0.00 | 0.43 | 0.00 | 97 | 1008.7 |
| 20260906081951 | 22 | 285 | 0.0 | 0.0 | 0.00 | 0.43 | 0.00 | 98 | 1008.6 |
| 20260906081450 | 23 | 269 | 0.0 | 0.0 | 0.00 | 0.43 | 0.00 | 97 | 1008.6 |
| 20260906081157 | 23 | 256 | 0.0 | 0.0 | 0.00 | 0.43 | 0.00 | 97 | 1008.7 |
| 20260906080950 | 23 | 256 | 0.0 | 0.0 | 0.00 | 0.43 | 0.00 | 97 | 1008.7 |
| 20260906080450 | 23 | 293 | 0.0 | 0.0 | 0.00 | 0.43 | 0.00 | 97 | 1008.7 |
| 20260906075950 | 23 | 285 | 0.0 | 0.0 | 0.00 | 0.43 | 0.00 | 97 | 1008.8 |
| 20260906075452 | 23 | 270 | 0.0 | 0.0 | 0.00 | 0.43 | 0.00 | 98 | 1008.8 |
| 20260906074950 | 22 | 59 | 0.0 | 0.0 | 0.00 | 0.43 | 0.00 | 98 | 1008.8 |
| 20260906074541 | 22 | 255 | 0.0 | 0.0 | 0.00 | 0.43 | 0.00 | 97 | 1008.8 |
| 20260906074450 | 22 | 255 | 0.0 | 0.0 | 0.00 | 0.43 | 0.00 | 97 | 1008.8 |
| 20260906073948 | 22 | 255 | 0.0 | 0.0 | 0.00 | 0.43 | 0.00 | 97 | 1008.9 |
| 20260906073920 | 22 | 255 | 0.0 | 0.0 | 0.00 | 0.43 | 0.00 | 97 | 1008.5 |
| 20260906073520 | 22 | 255 | 0.0 | 0.0 | 0.00 | 0.43 | 0.00 | 97 | 1008.5 |
| 20260906073449 | 22 | 255 | 0.0 | 0.0 | 0.00 | 0.43 | 0.00 | 97 | 1008.5 |
| 20260906071947 | 22 | 271 | 0.0 | 0.0 | 0.00 | 0.43 | 0.00 | 97 | 1008.1 |
| 20260906071447 | 22 | 274 | 0.0 | 0.0 | 0.00 | 0.43 | 0.00 | 97 | 1008.1 |
| 20260906070947 | 22 | 274 | 0.0 | 0.0 | 0.00 | 0.43 | 0.00 | 97 | 1008.1 |
| 20260906070446 | 22 | 287 | 0.0 | 1.6 | 0.00 | 0.43 | 0.00 | 98 | 1008.2 |
| 20260906065946 | 22 | 305 | 0.0 | 1.6 | 0.00 | 0.43 | 0.00 | 97 | 1008.4 |
| 20260906065540 | 22 | 299 | 0.0 | 0.0 | 0.00 | 0.43 | 0.00 | 97 | 1008.5 |
| 20260906065446 | 22 | 299 | 0.0 | 0.0 | 0.00 | 0.43 | 0.00 | 97 | 1008.5 |
| 20260906064946 | 22 | 296 | 0.0 | 0.0 | 0.00 | 0.43 | 0.00 | 97 | 1008.6 |
| 20260906064146 | 22 | 296 | 0.0 | 0.0 | 0.00 | 0.43 | 0.00 | 97 | 1008.7 |
| 20260906063945 | 22 | 296 | 0.0 | 0.0 | 0.00 | 0.43 | 0.00 | 97 | 1008.7 |
| 20260906062945 | 22 | 291 | 0.0 | 0.0 | 0.00 | 0.43 | 0.00 | 97 | 1008.8 |
| 20260906061945 | 22 | 285 | 0.0 | 0.0 | 0.00 | 0.43 | 0.00 | 97 | 1008.8 |
| 20260906061020 | 23 | 283 | 0.0 | 0.0 | 0.00 | 0.43 | 0.00 | 97 | 1008.8 |
| 20260906060943 | 23 | 283 | 0.0 | 0.0 | 0.00 | 0.43 | 0.00 | 97 | 1008.8 |
| 20260906060443 | 22 | 282 | 0.0 | 1.6 | 0.00 | 0.43 | 0.00 | 98 | 1008.7 |
| 20260906055943 | 22 | 281 | 0.0 | 0.0 | 0.00 | 0.43 | 0.00 | 97 | 1008.8 |
| 20260906055444 | 22 | 281 | 0.0 | 0.0 | 0.00 | 0.43 | 0.00 | 97 | 1008.8 |
| 20260906054444 | 23 | 68 | 0.0 | 4.8 | 0.00 | 0.43 | 0.00 | 97 | 1008.9 |
| 20260906053443 | 23 | 290 | 0.0 | 0.0 | 0.00 | 0.43 | 0.00 | 97 | 1008.9 |
| 20260906052943 | 23 | 290 | 0.0 | 1.6 | 0.00 | 0.43 | 0.00 | 97 | 1008.8 |
| 20260906052442 | 23 | 325 | 0.0 | 0.0 | 0.00 | 0.43 | 0.00 | 97 | 1008.9 |
| 20260906051942 | 23 | 306 | 0.0 | 0.0 | 0.00 | 0.43 | 0.00 | 97 | 1008.9 |
| 20260906051440 | 23 | 306 | 0.0 | 0.0 | 0.00 | 0.43 | 0.00 | 97 | 1008.9 |
| 20260906045943 | 23 | 328 | 0.0 | 1.6 | 0.00 | 0.43 | 0.00 | 97 | 1009.0 |
| 20260906045444 | 23 | 328 | 0.0 | 0.0 | 0.00 | 0.43 | 0.00 | 97 | 1009.0 |
| 20260906042938 | 23 | 277 | 0.0 | 0.0 | 0.00 | 0.43 | 0.00 | 96 | 1009.4 |
| 20260906042444 | 23 | 278 | 0.0 | 0.0 | 0.00 | 0.43 | 0.00 | 96 | 1009.4 |
| 20260906035545 | 23 | 285 | 0.0 | 1.6 | 0.00 | 0.43 | 0.43 | 97 | 1009.4 |
| 20260906035436 | 23 | 285 | 0.0 | 1.6 | 0.00 | 0.43 | 0.43 | 97 | 1009.4 |
| 20260906034435 | 23 | 281 | 0.0 | 0.0 | 0.00 | 0.43 | 0.43 | 97 | 1009.4 |
| 20260906033935 | 23 | 280 | 0.0 | 1.6 | 0.00 | 0.43 | 0.43 | 97 | 1009.4 |
| 20260906032934 | 23 | 297 | 0.0 | 0.0 | 0.00 | 0.43 | 0.43 | 96 | 1009.4 |
| 20260906032434 | 23 | 297 | 0.0 | 1.6 | 0.00 | 0.43 | 0.43 | 96 | 1009.4 |
| 20260906031934 | 23 | 286 | 0.0 | 1.6 | 0.00 | 0.43 | 0.43 | 96 | 1009.3 |
| 20260906030934 | 23 | 277 | 0.0 | 1.6 | 0.00 | 0.43 | 0.43 | 96 | 1009.2 |
| 20260906025933 | 23 | 301 | 0.0 | 1.6 | 0.00 | 0.43 | 0.43 | 96 | 1009.1 |
| 20260906025433 | 23 | 311 | 0.0 | 1.6 | 0.00 | 0.43 | 0.43 | 96 | 1009.2 |
| 20260906024932 | 23 | 311 | 0.0 | 1.6 | 0.00 | 0.43 | 0.43 | 96 | 1009.1 |
| 20260906024432 | 23 | 272 | 0.0 | 1.6 | 0.00 | 0.43 | 0.43 | 96 | 1009.1 |
| 20260906023931 | 23 | 262 | 0.0 | 1.6 | 0.00 | 0.43 | 0.43 | 95 | 1009.0 |
| 20260906023433 | 23 | 258 | 0.0 | 0.0 | 0.00 | 0.43 | 0.43 | 95 | 1008.9 |
| 20260906022932 | 24 | 286 | 0.0 | 0.0 | 0.00 | 0.43 | 0.43 | 95 | 1009.0 |
| 20260906022431 | 24 | 282 | 0.0 | 0.0 | 0.00 | 0.43 | 0.43 | 95 | 1009.0 |
| 20260906021930 | 24 | 282 | 0.0 | 0.0 | 0.00 | 0.43 | 0.43 | 95 | 1009.0 |
| 20260906021431 | 24 | 295 | 0.0 | 0.0 | 0.00 | 0.43 | 0.43 | 96 | 1009.0 |
| 20260906020930 | 23 | 283 | 0.0 | 0.0 | 0.00 | 0.43 | 0.43 | 96 | 1009.0 |
| 20260906015929 | 24 | 274 | 0.0 | 0.0 | 0.00 | 0.43 | 0.43 | 95 | 1008.8 |
| 20260906015429 | 24 | 273 | 0.0 | 0.0 | 0.00 | 0.43 | 0.43 | 96 | 1008.9 |
| 20260906014929 | 24 | 278 | 0.0 | 0.0 | 0.00 | 0.43 | 0.43 | 96 | 1008.8 |
| 20260906014428 | 24 | 253 | 0.0 | 0.0 | 0.00 | 0.43 | 0.43 | 95 | 1008.8 |
| 20260906013929 | 24 | 276 | 0.0 | 0.0 | 0.00 | 0.43 | 0.43 | 95 | 1008.6 |
| 20260906013429 | 24 | 276 | 0.0 | 0.0 | 0.00 | 0.43 | 0.43 | 95 | 1008.6 |
| 20260906012427 | 25 | 277 | 0.0 | 0.0 | 0.00 | 0.43 | 0.43 | 94 | 1008.4 |
| 20260906011929 | 25 | 274 | 0.0 | 0.0 | 0.00 | 0.43 | 0.43 | 95 | 1008.3 |
| 20260906011428 | 25 | 267 | 0.0 | 0.0 | 0.00 | 0.43 | 0.43 | 95 | 1008.2 |
| 20260906010428 | 25 | 290 | 0.0 | 0.0 | 0.00 | 0.43 | 0.43 | 95 | 1007.8 |
| 20260906005926 | 25 | 290 | 0.0 | 0.0 | 0.00 | 0.43 | 0.43 | 95 | 1007.6 |
| 20260906005425 | 25 | 305 | 0.0 | 0.0 | 0.00 | 0.43 | 0.43 | 94 | 1007.6 |
| 20260906004926 | 25 | 304 | 0.0 | 0.0 | 0.00 | 0.43 | 0.43 | 94 | 1007.5 |
| 20260906004425 | 25 | 300 | 0.0 | 0.0 | 0.00 | 0.43 | 0.43 | 94 | 1007.5 |
| 20260906003925 | 25 | 277 | 0.0 | 0.0 | 0.00 | 0.43 | 0.43 | 95 | 1007.4 |
| 20260906003642 | 25 | 279 | 0.0 | 0.0 | 0.00 | 0.43 | 0.43 | 95 | 1007.3 |
| 20260906003425 | 25 | 279 | 0.0 | 0.0 | 0.00 | 0.43 | 0.43 | 95 | 1007.3 |
| 20260906002424 | 25 | 304 | 0.0 | 0.0 | 0.00 | 0.43 | 0.43 | 94 | 1007.6 |
| 20260906001924 | 25 | 309 | 0.0 | 0.0 | 0.00 | 0.43 | 0.43 | 94 | 1007.6 |
| 20260906001423 | 25 | 281 | 0.0 | 0.0 | 0.00 | 0.43 | 0.43 | 94 | 1007.6 |
| 20260906000425 | 25 | 317 | 0.0 | 0.0 | 0.00 | 0.43 | 0.43 | 94 | 1007.8 |
| 20260905235422 | 26 | 287 | 0.0 | 0.0 | 0.00 | 0.43 | 0.43 | 94 | 1007.9 |
| 20260905234922 | 26 | 307 | 0.0 | 0.0 | 0.00 | 0.43 | 0.43 | 94 | 1008.0 |
| 20260905234424 | 26 | 275 | 0.0 | 0.0 | 0.00 | 0.43 | 0.43 | 94 | 1008.1 |
| 20260905233033 | 26 | 310 | 0.0 | 0.0 | 0.00 | 0.43 | 0.43 | 92 | 1007.9 |
| 20260905232921 | 26 | 310 | 0.0 | 0.0 | 0.00 | 0.43 | 0.43 | 92 | 1007.9 |
| 20260905232420 | 26 | 281 | 0.0 | 0.0 | 0.00 | 0.43 | 0.43 | 93 | 1007.9 |
| 20260905232159 | 26 | 268 | 0.0 | 0.0 | 0.00 | 0.43 | 0.43 | 93 | 1007.8 |
| 20260905231920 | 26 | 268 | 0.0 | 0.0 | 0.00 | 0.43 | 0.43 | 93 | 1007.8 |
| 20260905231420 | 26 | 309 | 0.0 | 0.0 | 0.00 | 0.43 | 0.43 | 92 | 1007.8 |
| 20260905230920 | 26 | 318 | 0.0 | 0.0 | 0.00 | 0.43 | 0.43 | 92 | 1007.7 |
| 20260905225921 | 26 | 316 | 0.0 | 0.0 | 0.00 | 0.43 | 0.43 | 93 | 1007.6 |
| 20260905225503 | 26 | 325 | 0.0 | 0.0 | 0.00 | 0.43 | 0.43 | 92 | 1007.5 |
| 20260905225419 | 26 | 325 | 0.0 | 0.0 | 0.00 | 0.43 | 0.43 | 92 | 1007.5 |
| 20260905224918 | 27 | 346 | 0.0 | 0.0 | 0.00 | 0.43 | 0.43 | 92 | 1007.2 |
| 20260905224418 | 27 | 293 | 0.0 | 0.0 | 0.00 | 0.43 | 0.43 | 92 | 1007.2 |
| 20260905223417 | 27 | 278 | 0.0 | 0.0 | 0.00 | 0.43 | 0.43 | 93 | 1007.2 |
| 20260905222917 | 27 | 289 | 0.0 | 0.0 | 0.00 | 0.43 | 0.43 | 94 | 1007.3 |
| 20260905222450 | 26 | 314 | 0.0 | 0.0 | 0.00 | 0.43 | 0.43 | 94 | 1007.6 |
| 20260905222417 | 26 | 314 | 0.0 | 0.0 | 0.00 | 0.43 | 0.43 | 94 | 1007.6 |
| 20260905221917 | 26 | 304 | 0.0 | 0.0 | 0.00 | 0.43 | 0.43 | 94 | 1007.7 |
| 20260905220917 | 26 | 321 | 0.0 | 0.0 | 0.03 | 0.43 | 0.43 | 94 | 1008.0 |
| 20260905215919 | 26 | 301 | 0.0 | 0.0 | 0.38 | 0.43 | 0.43 | 93 | 1008.3 |
| 20260905215810 | 26 | 290 | 0.0 | 0.0 | 0.43 | 0.43 | 0.43 | 93 | 1008.1 |
| 20260905215415 | 26 | 290 | 0.0 | 0.0 | 0.43 | 0.43 | 0.43 | 93 | 1008.1 |
| 20260905214415 | 26 | 257 | 0.0 | 0.0 | 0.43 | 0.43 | 0.43 | 94 | 1008.3 |
| 20260905214005 | 26 | 311 | 0.0 | 1.6 | 0.43 | 0.43 | 0.43 | 93 | 1008.4 |
| 20260905213916 | 26 | 311 | 0.0 | 1.6 | 0.43 | 0.43 | 0.43 | 93 | 1008.4 |
| 20260905213415 | 25 | 328 | 0.0 | 1.6 | 0.43 | 0.43 | 0.43 | 94 | 1008.4 |
| 20260905212914 | 25 | 295 | 0.0 | 1.6 | 0.43 | 0.43 | 0.43 | 91 | 1008.3 |
| 20260905212414 | 24 | 318 | 1.6 | 4.8 | 0.43 | 0.43 | 0.43 | 89 | 1008.2 |
| 20260905211914 | 25 | 60 | 6.4 | 8.0 | 0.43 | 0.43 | 0.43 | 90 | 1008.1 |
| 20260905211413 | 25 | 64 | 8.0 | 17.7 | 0.41 | 0.41 | 0.41 | 89 | 1008.1 |
| 20260905210913 | 25 | 72 | 9.7 | 8.0 | 0.41 | 0.41 | 0.41 | 87 | 1007.8 |
| 20260905210604 | 26 | 27 | 11.3 | 20.9 | 0.28 | 0.28 | 0.28 | 85 | 1008.2 |
| 20260905210413 | 26 | 27 | 11.3 | 20.9 | 0.28 | 0.28 | 0.28 | 85 | 1008.2 |
| 20260905205912 | 28 | 87 | 11.3 | 17.7 | 0.05 | 0.05 | 0.05 | 78 | 1008.2 |
| 20260905205413 | 32 | 79 | 6.4 | 20.9 | 0.00 | 0.00 | 0.00 | 60 | 1008.3 |
| 20260905205016 | 33 | 68 | 3.2 | 14.5 | 0.00 | 0.00 | 0.00 | 57 | 1008.2 |
| 20260905204912 | 33 | 68 | 3.2 | 14.5 | 0.00 | 0.00 | 0.00 | 57 | 1008.2 |
| 20260905204555 | 34 | 52 | 3.2 | 6.4 | 0.00 | 0.00 | 0.00 | 55 | 1007.8 |
| 20260905204412 | 34 | 52 | 3.2 | 6.4 | 0.00 | 0.00 | 0.00 | 55 | 1007.8 |
| 20260905203912 | 35 | 328 | 3.2 | 6.4 | 0.00 | 0.00 | 0.00 | 57 | 1007.6 |
| 20260905203411 | 35 | 85 | 1.6 | 4.8 | 0.00 | 0.00 | 0.00 | 57 | 1007.4 |
| 20260905202912 | 35 | 72 | 0.0 | 6.4 | 0.00 | 0.00 | 0.00 | 56 | 1007.5 |
| 20260905202410 | 35 | 35 | 0.0 | 1.6 | 0.00 | 0.00 | 0.00 | 55 | 1007.5 |
| 20260905201910 | 35 | 313 | 0.0 | 1.6 | 0.00 | 0.00 | 0.00 | 56 | 1007.5 |
| 20260905200409 | 33 | 321 | 0.0 | 0.0 | 0.00 | 0.00 | 0.00 | 62 | 1007.6 |
| 20260905195408 | 33 | 60 | 0.0 | 1.6 | 0.00 | 0.00 | 0.00 | 63 | 1007.7 |
| 20260905194909 | 34 | 43 | 0.0 | 1.6 | 0.00 | 0.00 | 0.00 | 61 | 1007.7 |
| 20260905194408 | 34 | 7 | 0.0 | 1.6 | 0.00 | 0.00 | 0.00 | 59 | 1007.7 |
| 20260905193908 | 34 | 314 | 0.0 | 1.6 | 0.00 | 0.00 | 0.00 | 58 | 1007.7 |
| 20260905193451 | 34 | 331 | 0.0 | 1.6 | 0.00 | 0.00 | 0.00 | 58 | 1007.8 |
| 20260905193407 | 34 | 331 | 0.0 | 1.6 | 0.00 | 0.00 | 0.00 | 58 | 1007.8 |
| 20260905192907 | 34 | 323 | 0.0 | 3.2 | 0.00 | 0.00 | 0.00 | 58 | 1007.9 |
| 20260905192407 | 35 | 42 | 0.0 | 1.6 | 0.00 | 0.00 | 0.00 | 57 | 1007.9 |
| 20260905191406 | 35 | 52 | 0.0 | 1.6 | 0.00 | 0.00 | 0.00 | 55 | 1008.1 |
| 20260905190908 | 35 | 259 | 0.0 | 1.6 | 0.00 | 0.00 | 0.00 | 56 | 1008.2 |
| 20260905185405 | 35 | 284 | 1.6 | 1.6 | 0.00 | 0.00 | 0.00 | 55 | 1008.2 |
| 20260905184905 | 35 | 79 | 6.4 | 9.7 | 0.00 | 0.00 | 0.00 | 58 | 1008.2 |
| 20260905183904 | 35 | 66 | 1.6 | 6.4 | 0.00 | 0.00 | 0.00 | 53 | 1008.2 |
| 20260905183404 | 35 | 63 | 1.6 | 6.4 | 0.00 | 0.00 | 0.00 | 55 | 1008.3 |
| 20260905182904 | 35 | 65 | 1.6 | 6.4 | 0.00 | 0.00 | 0.00 | 56 | 1008.4 |
| 20260905182515 | 35 | 66 | 1.6 | 3.2 | 0.00 | 0.00 | 0.00 | 54 | 1008.5 |
| 20260905182406 | 35 | 66 | 1.6 | 3.2 | 0.00 | 0.00 | 0.00 | 54 | 1008.5 |
| 20260905181903 | 35 | 65 | 4.8 | 11.3 | 0.00 | 0.00 | 0.00 | 54 | 1008.5 |
| 20260905181615 | 34 | 70 | 4.8 | 12.9 | 0.00 | 0.00 | 0.00 | 55 | 1008.6 |
| 20260905181406 | 34 | 70 | 4.8 | 12.9 | 0.00 | 0.00 | 0.00 | 55 | 1008.6 |
| 20260905175902 | 34 | 264 | 6.4 | 12.9 | 0.00 | 0.00 | 0.00 | 57 | 1008.9 |
| 20260905175402 | 34 | 69 | 6.4 | 14.5 | 0.00 | 0.00 | 0.00 | 54 | 1009.0 |
| 20260905174902 | 33 | 80 | 3.2 | 11.3 | 0.00 | 0.00 | 0.00 | 61 | 1008.9 |
| 20260905174401 | 34 | 75 | 0.0 | 4.8 | 0.00 | 0.00 | 0.00 | 57 | 1009.0 |
| 20260905174154 | 34 | 75 | 1.6 | 3.2 | 0.00 | 0.00 | 0.00 | 57 | 1009.0 |
| 20260905173901 | 34 | 75 | 1.6 | 3.2 | 0.00 | 0.00 | 0.00 | 57 | 1009.0 |
| 20260905173401 | 34 | 54 | 1.6 | 8.0 | 0.00 | 0.00 | 0.00 | 59 | 1009.2 |
| 20260905172400 | 33 | 58 | 3.2 | 9.7 | 0.00 | 0.00 | 0.00 | 61 | 1009.2 |
| 20260905171939 | 33 | 71 | 1.6 | 4.8 | 0.00 | 0.00 | 0.00 | 60 | 1009.2 |
| 20260905171900 | 33 | 71 | 1.6 | 4.8 | 0.00 | 0.00 | 0.00 | 60 | 1009.2 |
| 20260905171359 | 33 | 63 | 1.6 | 4.8 | 0.00 | 0.00 | 0.00 | 64 | 1009.3 |
| 20260905165858 | 32 | 64 | 3.2 | 1.6 | 0.00 | 0.00 | 0.00 | 64 | 1009.5 |
| 20260905165358 | 32 | 77 | 3.2 | 8.0 | 0.00 | 0.00 | 0.00 | 67 | 1009.5 |
| 20260905164858 | 32 | 78 | 1.6 | 4.8 | 0.00 | 0.00 | 0.00 | 67 | 1009.6 |
| 20260905164649 | 32 | 66 | 1.6 | 3.2 | 0.00 | 0.00 | 0.00 | 68 | 1009.7 |
| 20260905164359 | 32 | 66 | 1.6 | 3.2 | 0.00 | 0.00 | 0.00 | 68 | 1009.7 |
| 20260905164202 | 32 | 78 | 1.6 | 3.2 | 0.00 | 0.00 | 0.00 | 69 | 1009.8 |
| 20260905163857 | 32 | 78 | 1.6 | 3.2 | 0.00 | 0.00 | 0.00 | 69 | 1009.8 |
| 20260905163358 | 32 | 352 | 3.2 | 3.2 | 0.00 | 0.00 | 0.00 | 68 | 1009.8 |
| 20260905162700 | 31 | 75 | 1.6 | 4.8 | 0.00 | 0.00 | 0.00 | 69 | 1009.9 |
| 20260905162356 | 31 | 75 | 1.6 | 4.8 | 0.00 | 0.00 | 0.00 | 69 | 1009.9 |
| 20260905161856 | 31 | 81 | 3.2 | 9.7 | 0.00 | 0.00 | 0.00 | 70 | 1010.0 |
| 20260905161356 | 31 | 64 | 1.6 | 8.0 | 0.00 | 0.00 | 0.00 | 70 | 1010.2 |
| 20260905160856 | 31 | 61 | 0.0 | 0.0 | 0.00 | 0.00 | 0.00 | 72 | 1010.2 |
| 20260905160357 | 31 | 72 | 0.0 | 0.0 | 0.00 | 0.00 | 0.00 | 73 | 1010.2 |
| 20260905155855 | 31 | 71 | 0.0 | 0.0 | 0.00 | 0.00 | 0.00 | 73 | 1010.2 |
| 20260905155355 | 31 | 73 | 0.0 | 0.0 | 0.00 | 0.00 | 0.00 | 73 | 1010.3 |
| 20260905154855 | 30 | 84 | 0.0 | 3.2 | 0.00 | 0.00 | 0.00 | 73 | 1010.3 |
| 20260905154355 | 30 | 74 | 0.0 | 3.2 | 0.00 | 0.00 | 0.00 | 73 | 1010.5 |
| 20260905154110 | 30 | 73 | 0.0 | 1.6 | 0.00 | 0.00 | 0.00 | 75 | 1010.4 |
| 20260905153854 | 30 | 73 | 0.0 | 1.6 | 0.00 | 0.00 | 0.00 | 75 | 1010.4 |
| 20260905152853 | 30 | 56 | 0.0 | 103.0 | 0.00 | 0.00 | 0.00 | 77 | 1010.4 |
| 20260905152353 | 30 | 56 | 0.0 | 0.0 | 0.00 | 0.00 | 0.00 | 76 | 1010.4 |
| 20260905151853 | 30 | 56 | 0.0 | 0.0 | 0.00 | 0.00 | 0.00 | 77 | 1010.5 |
| 20260905151353 | 29 | 51 | 0.0 | 1.6 | 0.00 | 0.00 | 0.00 | 77 | 1010.6 |
| 20260905150852 | 29 | 51 | 0.0 | 1.6 | 0.00 | 0.00 | 0.00 | 77 | 1010.6 |
| 20260905145353 | 28 | 42 | 0.0 | 0.0 | 0.00 | 0.00 | 0.00 | 78 | 1010.8 |
| 20260905144351 | 28 | 353 | 0.0 | 1.6 | 0.00 | 0.00 | 0.00 | 79 | 1010.8 |
| 20260905142350 | 27 | 44 | 0.0 | 0.0 | 0.00 | 0.00 | 0.00 | 84 | 1011.0 |
| 20260905141849 | 27 | 44 | 0.0 | 1.6 | 0.00 | 0.00 | 0.00 | 83 | 1011.0 |
| 20260905141349 | 27 | 355 | 0.0 | 1.6 | 0.00 | 0.00 | 0.00 | 83 | 1011.0 |
| 20260905140849 | 27 | 96 | 0.0 | 0.0 | 0.00 | 0.00 | 0.00 | 86 | 1011.0 |
| 20260905135848 | 27 | 96 | 0.0 | 0.0 | 0.00 | 0.00 | 0.00 | 87 | 1011.0 |
| 20260905135435 | 26 | 97 | 0.0 | 0.0 | 0.00 | 0.00 | 0.00 | 87 | 1011.1 |
| 20260905135348 | 26 | 97 | 0.0 | 0.0 | 0.00 | 0.00 | 0.00 | 87 | 1011.1 |
| 20260905135040 | 26 | 97 | 0.0 | 0.0 | 0.00 | 0.00 | 0.00 | 89 | 1011.1 |
| 20260905134932 | 26 | 97 | 0.0 | 0.0 | 0.00 | 0.00 | 0.00 | 89 | 1011.1 |
| 20260905134848 | 26 | 97 | 0.0 | 0.0 | 0.00 | 0.00 | 0.00 | 89 | 1011.1 |
| 20260905134419 | 26 | 98 | 0.0 | 0.0 | 0.00 | 0.00 | 0.00 | 89 | 1011.1 |
| 20260905134347 | 26 | 98 | 0.0 | 0.0 | 0.00 | 0.00 | 0.00 | 89 | 1011.1 |
| 20260905133847 | 26 | 52 | 0.0 | 0.0 | 0.00 | 0.00 | 0.00 | 89 | 1011.2 |
| 20260905133517 | 26 | 52 | 0.0 | 0.0 | 0.00 | 0.00 | 0.00 | 89 | 1011.4 |
| 20260905133350 | 26 | 52 | 0.0 | 0.0 | 0.00 | 0.00 | 0.00 | 89 | 1011.4 |
| 20260905132955 | 25 | 51 | 0.0 | 0.0 | 0.00 | 0.00 | 0.00 | 91 | 1011.3 |
| 20260905132847 | 25 | 51 | 0.0 | 0.0 | 0.00 | 0.00 | 0.00 | 91 | 1011.3 |
| 20260905132346 | 25 | 51 | 0.0 | 0.0 | 0.00 | 0.00 | 0.00 | 91 | 1011.3 |
| 20260905131846 | 25 | 39 | 0.0 | 0.0 | 0.00 | 0.00 | 0.00 | 92 | 1011.5 |
| 20260905131346 | 25 | 39 | 0.0 | 0.0 | 0.00 | 0.00 | 0.00 | 92 | 1011.4 |
| 20260905130846 | 25 | 39 | 0.0 | 0.0 | 0.00 | 0.00 | 0.00 | 93 | 1011.5 |
| 20260905125846 | 25 | 64 | 0.0 | 0.0 | 0.00 | 0.00 | 0.00 | 93 | 1011.5 |
| 20260905125345 | 24 | 64 | 0.0 | 1.6 | 0.00 | 0.00 | 0.00 | 94 | 1011.5 |
| 20260905124936 | 24 | 62 | 0.0 | 1.6 | 0.00 | 0.00 | 0.00 | 94 | 1011.4 |
| 20260905124844 | 24 | 62 | 0.0 | 1.6 | 0.00 | 0.00 | 0.00 | 94 | 1011.4 |
| 20260905124444 | 24 | 63 | 1.6 | 3.2 | 0.00 | 0.00 | 0.00 | 95 | 1011.5 |
| 20260905124345 | 24 | 63 | 1.6 | 3.2 | 0.00 | 0.00 | 0.00 | 95 | 1011.5 |
| 20260905123844 | 24 | 68 | 1.6 | 3.2 | 0.00 | 0.00 | 0.00 | 95 | 1011.4 |
| 20260905122845 | 23 | 61 | 0.0 | 3.2 | 0.00 | 0.00 | 0.00 | 96 | 1011.3 |
| 20260905122417 | 23 | 70 | 0.0 | 3.2 | 0.00 | 0.00 | 0.00 | 96 | 1011.3 |
| 20260905122343 | 23 | 70 | 0.0 | 3.2 | 0.00 | 0.00 | 0.00 | 96 | 1011.3 |
| 20260905121844 | 23 | 76 | 0.0 | 1.6 | 0.00 | 0.00 | 0.00 | 96 | 1011.2 |
| 20260905121506 | 23 | 303 | 0.0 | 0.0 | 0.00 | 0.00 | 0.00 | 96 | 1011.1 |
| 20260905121342 | 23 | 303 | 0.0 | 0.0 | 0.00 | 0.00 | 0.00 | 96 | 1011.1 |
| 20260905120842 | 23 | 295 | 0.0 | 0.0 | 0.00 | 0.00 | 0.00 | 96 | 1011.1 |
| 20260905115924 | 22 | 308 | 0.0 | 0.0 | 0.00 | 0.00 | 0.00 | 96 | 1011.0 |
| 20260905115841 | 22 | 308 | 0.0 | 0.0 | 0.00 | 0.00 | 0.00 | 96 | 1011.0 |
| 20260905115345 | 22 | 308 | 0.0 | 0.0 | 0.00 | 0.00 | 0.00 | 95 | 1011.0 |
| 20260905114845 | 22 | 308 | 0.0 | 0.0 | 0.00 | 0.00 | 0.00 | 95 | 1011.0 |
| 20260905114427 | 22 | 286 | 0.0 | 1.6 | 0.00 | 0.00 | 0.00 | 96 | 1010.9 |
| 20260905114343 | 22 | 286 | 0.0 | 1.6 | 0.00 | 0.00 | 0.00 | 96 | 1010.9 |
| 20260905113840 | 22 | 286 | 0.0 | 1.6 | 0.00 | 0.00 | 0.00 | 96 | 1010.9 |
| 20260905113340 | 22 | 309 | 0.0 | 1.6 | 0.00 | 0.00 | 0.00 | 96 | 1010.8 |
| 20260905112929 | 22 | 288 | 0.0 | 0.0 | 0.00 | 0.00 | 0.00 | 96 | 1010.6 |
| 20260905112840 | 22 | 288 | 0.0 | 0.0 | 0.00 | 0.00 | 0.00 | 96 | 1010.6 |
| 20260905112340 | 22 | 288 | 0.0 | 0.0 | 0.00 | 0.00 | 0.00 | 96 | 1010.6 |
| 20260905111841 | 22 | 288 | 0.0 | 0.0 | 0.00 | 0.00 | 0.00 | 96 | 1010.5 |
| 20260905111339 | 22 | 288 | 0.0 | 0.0 | 0.00 | 0.00 | 0.00 | 96 | 1010.4 |
| 20260905110916 | 22 | 288 | 0.0 | 0.0 | 0.00 | 0.00 | 0.00 | 96 | 1010.3 |
| 20260905110839 | 22 | 288 | 0.0 | 0.0 | 0.00 | 0.00 | 0.00 | 96 | 1010.3 |
| 20260905105839 | 22 | 288 | 0.0 | 0.0 | 0.00 | 0.00 | 0.00 | 95 | 1010.2 |
| 20260905105016 | 23 | 288 | 0.0 | 0.0 | 0.00 | 0.00 | 0.00 | 94 | 1010.1 |
| 20260905104838 | 23 | 288 | 0.0 | 0.0 | 0.00 | 0.00 | 0.00 | 94 | 1010.1 |
| 20260905104337 | 23 | 288 | 0.0 | 0.0 | 0.00 | 0.00 | 0.00 | 95 | 1010.1 |
| 20260905103913 | 23 | 293 | 0.0 | 0.0 | 0.00 | 0.00 | 0.00 | 95 | 1010.0 |
| 20260905103837 | 23 | 293 | 0.0 | 0.0 | 0.00 | 0.00 | 0.00 | 95 | 1010.0 |
| 20260905102837 | 22 | 290 | 0.0 | 0.0 | 0.00 | 0.00 | 0.00 | 95 | 1010.0 |
| 20260905102336 | 23 | 290 | 0.0 | 0.0 | 0.00 | 0.00 | 0.00 | 94 | 1010.0 |
| 20260905101836 | 23 | 290 | 0.0 | 0.0 | 0.00 | 0.00 | 0.00 | 94 | 1009.9 |
| 20260905101336 | 23 | 285 | 0.0 | 0.0 | 0.00 | 0.00 | 0.00 | 94 | 1010.0 |
| 20260905100835 | 23 | 284 | 0.0 | 0.0 | 0.00 | 0.00 | 0.00 | 95 | 1010.0 |
| 20260905100335 | 22 | 290 | 0.0 | 0.0 | 0.00 | 0.00 | 0.00 | 95 | 1010.0 |
| 20260905095836 | 22 | 290 | 0.0 | 0.0 | 0.00 | 0.00 | 0.00 | 95 | 1010.0 |
| 20260905095334 | 23 | 290 | 0.0 | 0.0 | 0.00 | 0.00 | 0.00 | 95 | 1010.0 |
| 20260905094835 | 23 | 293 | 0.0 | 0.0 | 0.00 | 0.00 | 0.00 | 95 | 1009.9 |
| 20260905094334 | 23 | 285 | 0.0 | 0.0 | 0.00 | 0.00 | 0.00 | 94 | 1009.8 |
| 20260905093835 | 23 | 285 | 0.0 | 0.0 | 0.00 | 0.00 | 0.00 | 94 | 1009.8 |
| 20260905092833 | 23 | 276 | 0.0 | 0.0 | 0.00 | 0.00 | 0.00 | 94 | 1009.9 |
| 20260905091832 | 23 | 289 | 0.0 | 0.0 | 0.00 | 0.00 | 0.00 | 93 | 1009.7 |
| 20260905090832 | 23 | 287 | 0.0 | 0.0 | 0.00 | 0.00 | 0.00 | 94 | 1009.8 |
| 20260905090450 | 23 | 290 | 0.0 | 1.6 | 0.00 | 0.00 | 0.00 | 94 | 1009.8 |
| 20260905090332 | 23 | 290 | 0.0 | 1.6 | 0.00 | 0.00 | 0.00 | 94 | 1009.8 |
| 20260905085831 | 23 | 288 | 0.0 | 0.0 | 0.00 | 0.00 | 0.00 | 94 | 1009.8 |
| 20260905085619 | 23 | 289 | 0.0 | 0.0 | 0.00 | 0.00 | 0.00 | 93 | 1009.7 |
| 20260905085332 | 23 | 289 | 0.0 | 0.0 | 0.00 | 0.00 | 0.00 | 93 | 1009.7 |